Time;durP1;ratioP1;P1;durP2;ratioP2;P2;SDS_P1;SDS_P2;PMS_P1;PMS_P2;Temp;Humidity;BMP_temperature;BMP_pressure;BME280_temperature;BME280_humidity;BME280_pressure;Samples;Min_cycle;Max_cycle;Signal;HPM_P1;HPM_P2
2022/05/15 00:00:37;;;;;;;17.17;16.38;;;;;;;;;;5092728;28;20197;-75
2022/05/15 00:00:39;;;;;;;16.77;16.08;;;;;;;;;;5091846;28;20552;-73
2022/05/15 00:03:07;;;;;;;15.77;15.18;;;;;;;;;;5092007;28;20217;-74
2022/05/15 00:05:33;;;;;;;16.20;15.50;;;;;;;;;;5092446;28;20202;-75
2022/05/15 00:08:00;;;;;;;16.30;15.60;;;;;;;;;;5091761;28;20198;-75
2022/05/15 00:10:27;;;;;;;16.10;15.40;;;;;;;;;;5091736;28;20240;-75
2022/05/15 00:12:53;;;;;;;16.40;15.70;;;;;;;;;;5091732;28;20194;-75
2022/05/15 00:15:20;;;;;;;16.02;15.32;;;;;;;;;;5091802;28;20407;-76
2022/05/15 00:17:48;;;;;;;16.15;15.45;;;;;;;;;;5092879;28;20220;-74
2022/05/15 00:20:15;;;;;;;16.73;16.02;;;;;;;;;;5095466;28;20198;-74
2022/05/15 00:22:41;;;;;;;16.15;15.45;;;;;;;;;;5095790;28;20267;-75
2022/05/15 00:25:08;;;;;;;16.27;15.57;;;;;;;;;;5095499;28;20194;-75
2022/05/15 00:27:35;;;;;;;16.40;15.70;;;;;;;;;;5095492;28;20229;-75
2022/05/15 00:30:02;;;;;;;16.55;15.85;;;;;;;;;;5095352;28;20281;-74
2022/05/15 00:32:28;;;;;;;16.20;15.50;;;;;;;;;;5095349;28;20277;-75
2022/05/15 00:34:56;;;;;;;16.40;15.70;;;;;;;;;;5095073;28;20264;-74
2022/05/15 00:37:23;;;;;;;16.10;15.40;;;;;;;;;;5094939;28;20236;-74
2022/05/15 00:39:50;;;;;;;15.55;14.95;;;;;;;;;;5094779;28;20285;-75
2022/05/15 00:42:17;;;;;;;16.52;15.82;;;;;;;;;;5095429;28;20245;-74
2022/05/15 00:44:43;;;;;;;16.15;15.45;;;;;;;;;;5094904;28;20243;-74
2022/05/15 00:47:10;;;;;;;16.23;15.52;;;;;;;;;;5094877;28;20194;-74
2022/05/15 00:49:37;;;;;;;15.60;15.00;;;;;;;;;;5094626;28;20193;-74
2022/05/15 00:52:08;;;;;;;15.20;14.60;;;;;;;;;;5094995;28;20190;-74
2022/05/15 00:54:37;;;;;;;15.38;14.77;;;;;;;;;;5094520;28;20650;-74
2022/05/15 00:57:05;;;;;;;15.95;15.25;;;;;;;;;;5094545;28;20255;-73
2022/05/15 00:59:34;;;;;;;16.20;15.50;;;;;;;;;;5094581;28;20648;-74
2022/05/15 01:02:01;;;;;;;16.00;15.30;;;;;;;;;;5094701;28;20199;-74
2022/05/15 01:04:28;;;;;;;16.10;15.40;;;;;;;;;;5094669;28;20197;-73
2022/05/15 01:06:55;;;;;;;16.20;15.50;;;;;;;;;;5094710;28;20254;-74
2022/05/15 01:09:23;;;;;;;16.30;15.60;;;;;;;;;;5094191;28;20735;-76
2022/05/15 01:11:50;;;;;;;16.38;15.68;;;;;;;;;;5094437;28;20281;-74
2022/05/15 01:14:18;;;;;;;16.98;16.17;;;;;;;;;;5094228;28;20714;-75
2022/05/15 01:16:45;;;;;;;17.00;16.20;;;;;;;;;;5094380;28;20288;-74
2022/05/15 01:19:12;;;;;;;16.60;15.90;;;;;;;;;;5094357;28;20193;-74
2022/05/15 01:21:42;;;;;;;16.50;15.80;;;;;;;;;;5094109;28;20200;-75
2022/05/15 01:24:09;;;;;;;16.60;15.90;;;;;;;;;;5094012;28;20201;-74
2022/05/15 01:26:38;;;;;;;17.20;16.40;;;;;;;;;;5094214;28;20194;-74
2022/05/15 01:29:05;;;;;;;16.83;16.02;;;;;;;;;;5093895;28;20190;-74
2022/05/15 01:31:32;;;;;;;16.60;15.90;;;;;;;;;;5093817;28;20578;-74
2022/05/15 01:33:59;;;;;;;17.00;16.20;;;;;;;;;;5093666;28;20189;-74
2022/05/15 01:36:26;;;;;;;16.85;16.05;;;;;;;;;;5094115;28;20246;-74
2022/05/15 01:38:54;;;;;;;16.75;16.05;;;;;;;;;;5093765;28;20285;-74
2022/05/15 01:41:21;;;;;;;15.90;15.20;;;;;;;;;;5094192;28;20204;-74
2022/05/15 01:43:52;;;;;;;16.10;15.40;;;;;;;;;;5093686;28;20189;-75
2022/05/15 01:46:21;;;;;;;15.90;15.20;;;;;;;;;;5094005;28;20245;-75
2022/05/15 01:48:48;;;;;;;16.05;15.35;;;;;;;;;;5093438;28;20255;-74
2022/05/15 01:51:15;;;;;;;16.08;15.38;;;;;;;;;;5094056;28;20194;-74
2022/05/15 01:53:42;;;;;;;16.25;15.55;;;;;;;;;;5093743;28;20221;-74
2022/05/15 01:56:10;;;;;;;16.10;15.40;;;;;;;;;;5093693;28;20236;-74
2022/05/15 01:58:37;;;;;;;15.60;15.00;;;;;;;;;;5093753;28;20229;-74
2022/05/15 02:01:04;;;;;;;15.75;15.07;;;;;;;;;;5093292;28;20197;-74
2022/05/15 02:03:31;;;;;;;16.30;15.60;;;;;;;;;;5093226;28;20200;-74
2022/05/15 02:05:57;;;;;;;17.33;16.52;;;;;;;;;;5093450;28;20642;-73
2022/05/15 02:08:24;;;;;;;17.75;16.95;;;;;;;;;;5093075;28;20243;-74
2022/05/15 02:10:51;;;;;;;17.48;16.67;;;;;;;;;;5093216;28;20253;-74
2022/05/15 02:13:19;;;;;;;16.73;16.02;;;;;;;;;;5093413;28;20659;-74
2022/05/15 02:15:46;;;;;;;16.23;15.52;;;;;;;;;;5093038;28;20233;-73
2022/05/15 02:18:12;;;;;;;16.27;15.57;;;;;;;;;;5093258;28;20677;-74
2022/05/15 02:20:39;;;;;;;16.08;15.38;;;;;;;;;;5093216;28;20202;-73
2022/05/15 02:23:06;;;;;;;16.50;15.80;;;;;;;;;;5093115;28;20710;-74
2022/05/15 02:25:33;;;;;;;16.55;15.85;;;;;;;;;;5093149;28;20219;-73
2022/05/15 02:28:00;;;;;;;16.38;15.68;;;;;;;;;;5093233;28;20194;-74
2022/05/15 02:30:28;;;;;;;15.88;15.18;;;;;;;;;;5092704;28;20194;-73
2022/05/15 02:32:55;;;;;;;15.43;14.82;;;;;;;;;;5093656;28;20290;-74
2022/05/15 02:35:22;;;;;;;16.02;15.32;;;;;;;;;;5092705;28;20244;-74
2022/05/15 02:37:49;;;;;;;15.95;15.25;;;;;;;;;;5093035;28;20280;-73
2022/05/15 02:40:16;;;;;;;16.00;15.30;;;;;;;;;;5092626;28;20194;-74
2022/05/15 02:42:44;;;;;;;16.25;15.55;;;;;;;;;;5092637;28;20197;-74
2022/05/15 02:45:11;;;;;;;16.17;15.48;;;;;;;;;;5092602;28;20209;-74
2022/05/15 02:47:39;;;;;;;15.38;14.77;;;;;;;;;;5092490;28;20581;-73
2022/05/15 02:52:53;;;;;;;15.00;14.40;;;;;;;;;;5092800;28;20616;-73
2022/05/15 02:55:20;;;;;;;14.65;14.05;;;;;;;;;;5092938;28;20229;-73
2022/05/15 02:57:47;;;;;;;14.20;13.70;;;;;;;;;;5093450;28;20225;-74
2022/05/15 03:00:15;;;;;;;14.80;14.20;;;;;;;;;;5092581;28;20252;-74
2022/05/15 03:02:43;;;;;;;15.18;14.57;;;;;;;;;;5092307;28;20229;-74
2022/05/15 03:05:12;;;;;;;14.65;14.05;;;;;;;;;;5092245;28;20201;-74
2022/05/15 03:07:39;;;;;;;15.48;14.77;;;;;;;;;;5092603;28;20197;-73
2022/05/15 03:10:07;;;;;;;15.88;15.18;;;;;;;;;;5092244;28;20329;-73
2022/05/15 03:12:33;;;;;;;15.90;15.20;;;;;;;;;;5092594;28;20194;-74
2022/05/15 03:15:00;;;;;;;15.48;14.77;;;;;;;;;;5092064;28;20312;-74
2022/05/15 03:17:27;;;;;;;15.90;15.20;;;;;;;;;;5092409;28;20221;-74
2022/05/15 03:19:55;;;;;;;15.50;14.80;;;;;;;;;;5092189;28;20222;-73
2022/05/15 03:22:22;;;;;;;15.10;14.50;;;;;;;;;;5092615;28;20280;-74
2022/05/15 03:24:48;;;;;;;14.90;14.30;;;;;;;;;;5092030;28;20290;-73
2022/05/15 03:27:16;;;;;;;15.45;14.75;;;;;;;;;;5092154;28;20190;-73
2022/05/15 03:29:43;;;;;;;15.90;15.20;;;;;;;;;;5092382;28;20232;-74
2022/05/15 03:32:10;;;;;;;16.40;15.60;;;;;;;;;;5092134;28;20225;-74
2022/05/15 03:34:36;;;;;;;16.55;15.75;;;;;;;;;;5092199;28;20208;-74
2022/05/15 03:37:05;;;;;;;16.65;15.85;;;;;;;;;;5091909;28;20276;-74
2022/05/15 03:39:31;;;;;;;16.85;16.05;;;;;;;;;;5091901;28;20254;-74
2022/05/15 03:41:59;;;;;;;18.02;17.13;;;;;;;;;;5092255;28;20278;-74
2022/05/15 03:44:26;;;;;;;19.20;18.10;;;;;;;;;;5091907;28;20190;-74
2022/05/15 03:46:52;;;;;;;20.10;19.00;;;;;;;;;;5091862;28;20198;-74
2022/05/15 03:49:19;;;;;;;20.58;19.38;;;;;;;;;;5092205;28;20315;-74
2022/05/15 03:51:46;;;;;;;21.92;20.63;;;;;;;;;;5092097;28;20571;-74
2022/05/15 03:54:14;;;;;;;22.20;20.90;;;;;;;;;;5095275;28;20248;-74
2022/05/15 03:56:53;;;;;;;21.52;20.33;;;;;;;;;;5095936;28;20236;-74
2022/05/15 03:59:21;;;;;;;20.05;18.95;;;;;;;;;;5095734;28;20196;-74
2022/05/15 04:01:48;;;;;;;19.40;18.33;;;;;;;;;;5095675;28;20200;-74
2022/05/15 04:04:15;;;;;;;20.27;19.17;;;;;;;;;;5095720;28;20578;-74
2022/05/15 04:06:41;;;;;;;20.58;19.48;;;;;;;;;;5095791;28;20578;-74
2022/05/15 04:09:08;;;;;;;21.30;20.20;;;;;;;;;;5095591;28;20281;-74
2022/05/15 04:11:36;;;;;;;21.02;19.90;;;;;;;;;;5095257;28;20237;-74
2022/05/15 04:14:03;;;;;;;21.65;20.55;;;;;;;;;;5095793;28;20194;-74
2022/05/15 04:16:30;;;;;;;20.90;19.90;;;;;;;;;;5095241;28;20721;-74
2022/05/15 04:18:57;;;;;;;19.23;18.33;;;;;;;;;;5095571;28;20285;-74
2022/05/15 04:21:24;;;;;;;18.75;17.85;;;;;;;;;;5095507;28;20244;-74
2022/05/15 04:23:51;;;;;;;20.83;19.83;;;;;;;;;;5095175;28;20288;-74
2022/05/15 04:26:18;;;;;;;19.58;18.58;;;;;;;;;;5095287;28;20198;-74
2022/05/15 04:28:46;;;;;;;21.00;20.00;;;;;;;;;;5095166;28;20236;-74
2022/05/15 04:31:13;;;;;;;18.67;17.67;;;;;;;;;;5095393;28;20225;-74
2022/05/15 04:33:40;;;;;;;18.77;17.80;;;;;;;;;;5094918;28;20714;-74
2022/05/15 04:36:07;;;;;;;18.15;17.25;;;;;;;;;;5094927;28;20711;-74
2022/05/15 04:38:34;;;;;;;18.58;17.58;;;;;;;;;;5095315;28;20193;-74
2022/05/15 04:41:00;;;;;;;18.83;17.92;;;;;;;;;;5094879;28;20229;-74
2022/05/15 04:43:27;;;;;;;18.33;17.42;;;;;;;;;;5095236;28;20559;-74
2022/05/15 04:45:55;;;;;;;18.75;17.85;;;;;;;;;;5095103;28;20198;-74
2022/05/15 04:48:22;;;;;;;19.13;18.23;;;;;;;;;;5095026;28;20293;-74
2022/05/15 04:50:48;;;;;;;18.42;17.52;;;;;;;;;;5095436;28;20193;-74
2022/05/15 04:53:15;;;;;;;17.88;16.98;;;;;;;;;;5094962;28;20282;-74
2022/05/15 04:55:42;;;;;;;17.98;16.98;;;;;;;;;;5094791;28;20232;-74
2022/05/15 04:58:08;;;;;;;18.40;17.40;;;;;;;;;;5094508;28;20229;-74
2022/05/15 05:00:35;;;;;;;18.05;17.05;;;;;;;;;;5094513;28;20293;-76
2022/05/15 05:03:04;;;;;;;17.88;16.88;;;;;;;;;;5094292;28;20197;-74
2022/05/15 05:05:30;;;;;;;18.20;17.20;;;;;;;;;;5094266;28;20280;-75
2022/05/15 05:07:57;;;;;;;17.95;16.95;;;;;;;;;;5094620;28;20392;-75
2022/05/15 05:10:24;;;;;;;17.83;16.83;;;;;;;;;;5094224;28;20261;-75
2022/05/15 05:12:50;;;;;;;17.52;16.52;;;;;;;;;;5094571;28;20221;-75
2022/05/15 05:15:17;;;;;;;17.80;16.90;;;;;;;;;;5094384;28;20325;-75
2022/05/15 05:17:44;;;;;;;16.90;16.00;;;;;;;;;;5094438;28;20194;-75
2022/05/15 05:20:13;;;;;;;17.50;16.60;;;;;;;;;;5094574;28;20254;-75
2022/05/15 05:22:40;;;;;;;17.13;16.23;;;;;;;;;;5094312;28;20251;-76
2022/05/15 05:25:08;;;;;;;17.17;16.27;;;;;;;;;;5094292;28;20198;-75
2022/05/15 05:27:36;;;;;;;16.67;15.88;;;;;;;;;;5094018;28;20618;-75
2022/05/15 05:30:03;;;;;;;17.45;16.55;;;;;;;;;;5093901;28;20198;-76
2022/05/15 05:32:29;;;;;;;18.55;17.45;;;;;;;;;;5094104;28;20280;-76
2022/05/15 05:34:56;;;;;;;16.90;16.00;;;;;;;;;;5094084;28;20190;-76
2022/05/15 05:37:24;;;;;;;16.60;15.80;;;;;;;;;;5093669;28;20316;-74
2022/05/15 05:39:51;;;;;;;16.75;15.95;;;;;;;;;;5093622;28;20285;-77
2022/05/15 05:42:17;;;;;;;16.67;15.88;;;;;;;;;;5093627;28;20197;-76
2022/05/15 05:44:44;;;;;;;15.82;15.13;;;;;;;;;;5093616;28;20233;-75
2022/05/15 05:47:11;;;;;;;16.10;15.40;;;;;;;;;;5093954;28;20280;-75
2022/05/15 05:49:38;;;;;;;15.40;14.80;;;;;;;;;;5093562;28;20193;-75
2022/05/15 05:52:05;;;;;;;15.60;15.00;;;;;;;;;;5094259;28;20194;-75
2022/05/15 05:54:33;;;;;;;15.85;15.15;;;;;;;;;;5093487;28;20233;-75
2022/05/15 05:56:59;;;;;;;16.20;15.50;;;;;;;;;;5093561;28;20229;-75
2022/05/15 05:59:26;;;;;;;15.85;15.15;;;;;;;;;;5093593;28;20197;-75
2022/05/15 06:01:53;;;;;;;16.85;16.05;;;;;;;;;;5093542;28;20289;-77
2022/05/15 06:07:04;;;;;;;16.73;15.93;;;;;;;;;;5093812;28;20693;-76
2022/05/15 06:09:30;;;;;;;16.70;15.90;;;;;;;;;;5092905;28;20742;-76
2022/05/15 06:11:58;;;;;;;16.70;15.90;;;;;;;;;;5093096;28;20225;-76
2022/05/15 06:14:25;;;;;;;16.48;15.68;;;;;;;;;;5093063;28;20190;-76
2022/05/15 06:16:52;;;;;;;17.10;16.30;;;;;;;;;;5092216;28;20228;-75
2022/05/15 06:19:18;;;;;;;17.13;16.33;;;;;;;;;;5092884;28;20208;-76
2022/05/15 06:21:45;;;;;;;18.10;17.10;;;;;;;;;;5093215;28;20609;-76
2022/05/15 06:24:12;;;;;;;18.00;17.10;;;;;;;;;;5093165;28;20205;-75
2022/05/15 06:26:39;;;;;;;17.55;16.73;;;;;;;;;;5092724;28;20284;-76
2022/05/15 06:29:07;;;;;;;17.00;16.20;;;;;;;;;;5093036;28;20233;-75
2022/05/15 06:31:33;;;;;;;17.58;16.77;;;;;;;;;;5092636;28;20276;-76
2022/05/15 06:34:00;;;;;;;17.35;16.55;;;;;;;;;;5092698;28;20201;-76
2022/05/15 06:36:27;;;;;;;17.45;16.65;;;;;;;;;;5092493;28;20235;-76
2022/05/15 06:38:54;;;;;;;16.60;15.88;;;;;;;;;;5092584;28;20201;-74
2022/05/15 06:41:20;;;;;;;17.60;16.80;;;;;;;;;;5092866;28;20796;-75
2022/05/15 06:43:47;;;;;;;17.45;16.65;;;;;;;;;;5092414;28;20237;-75
2022/05/15 06:46:15;;;;;;;18.33;17.52;;;;;;;;;;5092452;28;20616;-75
2022/05/15 06:48:42;;;;;;;18.05;17.25;;;;;;;;;;5092662;28;20293;-72
2022/05/15 06:51:09;;;;;;;17.85;17.05;;;;;;;;;;5092416;28;20197;-74
2022/05/15 06:53:36;;;;;;;18.40;17.60;;;;;;;;;;5093480;28;20601;-76
2022/05/15 06:58:46;;;;;;;18.23;17.42;;;;;;;;;;5092943;28;20185;-77
2022/05/15 07:01:13;;;;;;;19.15;18.25;;;;;;;;;;5092229;28;20198;-76
2022/05/15 07:03:41;;;;;;;18.38;17.58;;;;;;;;;;5092504;28;20198;-74
2022/05/15 07:06:10;;;;;;;18.35;17.55;;;;;;;;;;5092458;28;20274;-73
2022/05/15 07:08:36;;;;;;;18.98;18.17;;;;;;;;;;5092166;28;20199;-76
2022/05/15 07:11:03;;;;;;;18.50;17.70;;;;;;;;;;5092008;28;20313;-74
2022/05/15 07:13:32;;;;;;;18.30;17.50;;;;;;;;;;5092077;28;20229;-75
2022/05/15 07:15:59;;;;;;;19.02;18.23;;;;;;;;;;5091978;28;20568;-73
2022/05/15 07:18:26;;;;;;;19.08;18.17;;;;;;;;;;5092337;28;20236;-75
2022/05/15 07:20:54;;;;;;;19.33;18.42;;;;;;;;;;5092071;28;20663;-76
2022/05/15 07:23:21;;;;;;;19.42;18.52;;;;;;;;;;5091950;28;20659;-75
2022/05/15 07:25:48;;;;;;;19.50;18.60;;;;;;;;;;5092316;28;20229;-75
2022/05/15 07:28:15;;;;;;;19.75;18.90;;;;;;;;;;5095750;28;20225;-74
2022/05/15 07:30:42;;;;;;;19.70;18.80;;;;;;;;;;5096158;28;20193;-74
2022/05/15 07:33:09;;;;;;;19.58;18.67;;;;;;;;;;5096362;28;20220;-75
2022/05/15 07:35:36;;;;;;;19.50;18.60;;;;;;;;;;5095939;28;20254;-74
2022/05/15 07:38:04;;;;;;;19.65;18.75;;;;;;;;;;5095980;28;20727;-73
2022/05/15 07:40:31;;;;;;;19.58;18.67;;;;;;;;;;5095896;28;20225;-75
2022/05/15 07:42:57;;;;;;;20.00;19.10;;;;;;;;;;5095879;28;20208;-76
2022/05/15 07:45:24;;;;;;;19.70;18.80;;;;;;;;;;5096172;28;20242;-73
2022/05/15 07:47:51;;;;;;;19.30;18.40;;;;;;;;;;5095787;28;20198;-74
2022/05/15 07:50:17;;;;;;;19.60;18.70;;;;;;;;;;5095807;28;20671;-73
2022/05/15 07:52:44;;;;;;;19.17;18.27;;;;;;;;;;5095676;28;20654;-74
2022/05/15 07:55:12;;;;;;;19.75;18.85;;;;;;;;;;5095998;28;20282;-75
2022/05/15 07:57:39;;;;;;;19.33;18.42;;;;;;;;;;5095858;28;20257;-74
2022/05/15 08:00:08;;;;;;;19.63;18.73;;;;;;;;;;5095807;28;20198;-74
2022/05/15 08:02:35;;;;;;;19.20;18.30;;;;;;;;;;5095532;28;20198;-74
2022/05/15 08:08:02;;;;;;;20.02;19.02;;;;;;;;;;5096137;28;20667;-75
2022/05/15 08:10:32;;;;;;;19.65;18.65;;;;;;;;;;5095152;28;20251;-73
2022/05/15 08:12:59;;;;;;;19.90;18.90;;;;;;;;;;5095301;28;20198;-73
2022/05/15 08:15:26;;;;;;;19.27;18.38;;;;;;;;;;5095522;28;20215;-73
2022/05/15 08:17:53;;;;;;;19.17;18.27;;;;;;;;;;5095449;28;20225;-72
2022/05/15 08:25:49;;;;;;;19.10;18.10;;;;;;;;;;5095236;28;20271;-73
2022/05/15 08:28:16;;;;;;;19.08;18.08;;;;;;;;;;5095336;28;20620;-76
2022/05/15 08:30:43;;;;;;;18.40;17.50;;;;;;;;;;5095279;28;20235;-73
2022/05/15 08:33:11;;;;;;;18.08;17.17;;;;;;;;;;5095006;28;20243;-72
2022/05/15 08:35:37;;;;;;;18.15;17.25;;;;;;;;;;5094820;28;20193;-73
2022/05/15 08:38:05;;;;;;;18.35;17.38;;;;;;;;;;5094290;28;20222;-78
2022/05/15 08:40:35;;;;;;;17.85;16.95;;;;;;;;;;5094528;28;20229;-73
2022/05/15 08:43:04;;;;;;;18.00;17.10;;;;;;;;;;5095609;28;20221;-73
2022/05/15 08:45:33;;;;;;;18.17;17.27;;;;;;;;;;5094650;28;20197;-72
2022/05/15 08:48:02;;;;;;;18.13;17.23;;;;;;;;;;5094558;28;20189;-75
2022/05/15 08:50:30;;;;;;;19.23;18.23;;;;;;;;;;5094904;28;20229;-73
2022/05/15 08:52:58;;;;;;;17.67;16.88;;;;;;;;;;5094536;28;20597;-73
2022/05/15 08:55:36;;;;;;;17.75;16.95;;;;;;;;;;5094851;28;20193;-73
2022/05/15 08:58:06;;;;;;;18.27;17.38;;;;;;;;;;5094764;28;20221;-73
2022/05/15 09:00:35;;;;;;;18.00;17.17;;;;;;;;;;5094756;28;20318;-73
2022/05/15 09:03:07;;;;;;;18.17;17.27;;;;;;;;;;5094327;28;20220;-73
2022/05/15 09:05:34;;;;;;;18.67;17.77;;;;;;;;;;5094430;28;20190;-72
2022/05/15 09:08:04;;;;;;;17.98;17.08;;;;;;;;;;5094213;28;20233;-73
2022/05/15 09:10:34;;;;;;;17.92;17.02;;;;;;;;;;5094184;28;20226;-72
2022/05/15 09:13:04;;;;;;;17.88;16.98;;;;;;;;;;5094391;28;20200;-73
2022/05/15 09:15:33;;;;;;;18.02;17.13;;;;;;;;;;5094148;28;20659;-73
2022/05/15 09:18:02;;;;;;;18.33;17.42;;;;;;;;;;5094028;28;20247;-72
2022/05/15 09:20:33;;;;;;;17.90;17.10;;;;;;;;;;5094351;28;20281;-71
2022/05/15 09:23:02;;;;;;;18.08;17.27;;;;;;;;;;5093997;28;20217;-73
2022/05/15 09:25:33;;;;;;;17.73;16.92;;;;;;;;;;5093886;28;20243;-72
2022/05/15 09:28:01;;;;;;;17.60;16.80;;;;;;;;;;5093933;28;20229;-72
2022/05/15 09:30:37;;;;;;;17.67;16.88;;;;;;;;;;5094101;28;20197;-73
2022/05/15 09:33:04;;;;;;;17.70;16.90;;;;;;;;;;5094081;28;20197;-72
2022/05/15 09:35:33;;;;;;;17.50;16.70;;;;;;;;;;5093653;28;20724;-72
2022/05/15 09:43:30;;;;;;;17.65;16.85;;;;;;;;;;5093884;28;20185;-84
2022/05/15 09:43:31;;;;;;;17.65;16.85;;;;;;;;;;5093522;28;20592;-71
2022/05/15 09:46:00;;;;;;;17.48;16.67;;;;;;;;;;5093527;28;20212;-71
2022/05/15 09:48:32;;;;;;;17.48;16.67;;;;;;;;;;5093462;28;20202;-71
2022/05/15 09:51:00;;;;;;;17.80;17.00;;;;;;;;;;5092427;28;20777;-72
2022/05/15 09:53:31;;;;;;;17.55;16.75;;;;;;;;;;5093678;28;20201;-72
2022/05/15 09:55:59;;;;;;;17.48;16.67;;;;;;;;;;5093296;28;20193;-71
2022/05/15 09:58:26;;;;;;;17.45;16.65;;;;;;;;;;5093536;28;20674;-72
2022/05/15 10:01:10;;;;;;;17.23;16.42;;;;;;;;;;5093212;28;20563;-71
2022/05/15 10:03:38;;;;;;;17.33;16.52;;;;;;;;;;5093243;28;20614;-72
2022/05/15 10:06:06;;;;;;;17.60;16.80;;;;;;;;;;5093127;28;20755;-71
2022/05/15 10:08:33;;;;;;;17.50;16.70;;;;;;;;;;5093088;28;20198;-71
2022/05/15 10:11:02;;;;;;;16.90;16.20;;;;;;;;;;5092915;28;20286;-70
2022/05/15 10:13:31;;;;;;;17.13;16.33;;;;;;;;;;5093386;28;20202;-72
2022/05/15 10:16:02;;;;;;;17.33;16.52;;;;;;;;;;5093186;28;20280;-71
2022/05/15 10:18:30;;;;;;;17.40;16.60;;;;;;;;;;5093205;28;20224;-71
2022/05/15 10:21:01;;;;;;;17.70;16.90;;;;;;;;;;5092907;28;20655;-71
2022/05/15 10:23:29;;;;;;;17.88;17.08;;;;;;;;;;5092811;28;20212;-72
2022/05/15 10:25:57;;;;;;;17.75;16.95;;;;;;;;;;5093102;28;20538;-72
2022/05/15 10:28:34;;;;;;;18.20;17.40;;;;;;;;;;5093102;28;20276;-71
2022/05/15 10:31:04;;;;;;;18.30;17.50;;;;;;;;;;5093045;28;20268;-70
2022/05/15 10:33:35;;;;;;;17.40;16.60;;;;;;;;;;5092709;28;20186;-71
2022/05/15 10:36:07;;;;;;;17.42;16.63;;;;;;;;;;5093055;28;20563;-71
2022/05/15 10:38:42;;;;;;;17.67;16.88;;;;;;;;;;5092759;28;20213;-71
2022/05/15 10:41:13;;;;;;;17.75;16.95;;;;;;;;;;5092592;28;20238;-69
2022/05/15 10:43:58;;;;;;;17.92;17.13;;;;;;;;;;5092546;28;20221;-77
2022/05/15 10:46:28;;;;;;;17.45;16.65;;;;;;;;;;5092820;28;20186;-70
2022/05/15 10:49:01;;;;;;;17.55;16.75;;;;;;;;;;5092723;28;20207;-71
2022/05/15 10:51:33;;;;;;;17.00;16.30;;;;;;;;;;5093304;28;20225;-70
2022/05/15 10:59:47;;;;;;;16.90;16.10;;;;;;;;;;5092541;28;20185;-71
2022/05/15 11:02:41;;;;;;;17.45;16.65;;;;;;;;;;5091891;28;20221;-71
2022/05/15 11:05:10;;;;;;;17.20;16.30;;;;;;;;;;5067528;28;20221;-70
2022/05/15 11:07:40;;;;;;;17.90;17.00;;;;;;;;;;5092149;28;20190;-70
2022/05/15 11:10:10;;;;;;;17.83;16.98;;;;;;;;;;5092064;28;20742;-70
2022/05/15 11:12:42;;;;;;;17.20;16.40;;;;;;;;;;5092183;28;20225;-71
2022/05/15 11:15:19;;;;;;;17.30;16.40;;;;;;;;;;5092362;28;20190;-70
2022/05/15 11:17:50;;;;;;;16.70;15.90;;;;;;;;;;5092343;28;20213;-70
2022/05/15 11:20:18;;;;;;;16.73;15.93;;;;;;;;;;5092062;28;20635;-83
2022/05/15 11:22:48;;;;;;;16.52;15.73;;;;;;;;;;5091686;28;20255;-70
2022/05/15 11:25:19;;;;;;;17.45;16.65;;;;;;;;;;5092487;28;20628;-71
2022/05/15 11:27:48;;;;;;;18.38;17.58;;;;;;;;;;5091992;28;20243;-71
2022/05/15 11:30:18;;;;;;;18.05;17.25;;;;;;;;;;5092200;28;20276;-70
2022/05/15 11:32:59;;;;;;;17.95;17.15;;;;;;;;;;5092205;28;20255;-70
2022/05/15 11:35:27;;;;;;;18.30;17.50;;;;;;;;;;5092091;28;20201;-71
2022/05/15 11:38:04;;;;;;;18.63;17.83;;;;;;;;;;5091817;28;20738;-77
2022/05/15 11:40:32;;;;;;;16.90;16.20;;;;;;;;;;5091841;28;20721;-69
2022/05/15 11:42:59;;;;;;;16.98;16.27;;;;;;;;;;5091752;28;20194;-68
2022/05/15 11:45:39;;;;;;;17.02;16.33;;;;;;;;;;5092085;28;20205;-69
2022/05/15 11:48:20;;;;;;;16.70;16.00;;;;;;;;;;5091807;28;20691;-68
2022/05/15 11:50:54;;;;;;;16.95;16.25;;;;;;;;;;5091743;28;20182;-67
2022/05/15 11:53:26;;;;;;;17.00;16.30;;;;;;;;;;5092091;28;20221;-69
2022/05/15 11:55:53;;;;;;;17.05;16.35;;;;;;;;;;5091696;28;20196;-66
2022/05/15 11:58:26;;;;;;;17.85;17.05;;;;;;;;;;5091920;28;20282;-67
2022/05/15 12:01:07;;;;;;;17.42;16.63;;;;;;;;;;5091940;28;20285;-67
2022/05/15 12:03:48;;;;;;;17.00;16.30;;;;;;;;;;5091664;28;20640;-68
2022/05/15 12:06:17;;;;;;;17.00;16.20;;;;;;;;;;5091973;28;20239;-68
2022/05/15 12:08:50;;;;;;;16.67;15.98;;;;;;;;;;5091817;28;20201;-67
2022/05/15 12:11:32;;;;;;;17.30;16.50;;;;;;;;;;5091433;28;20226;-67
2022/05/15 12:14:00;;;;;;;17.10;16.35;;;;;;;;;;5092722;28;20571;-68
2022/05/15 12:16:28;;;;;;;17.15;16.35;;;;;;;;;;5095308;28;20206;-67
2022/05/15 12:19:01;;;;;;;17.20;16.40;;;;;;;;;;5095520;28;20233;-68
2022/05/15 12:21:33;;;;;;;16.95;16.15;;;;;;;;;;5095461;28;20190;-68
2022/05/15 12:26:49;;;;;;;17.30;16.50;;;;;;;;;;5095470;28;20192;-68
2022/05/15 12:29:25;;;;;;;17.30;16.50;;;;;;;;;;5095047;28;20625;-67
2022/05/15 12:31:53;;;;;;;18.08;17.27;;;;;;;;;;5095379;28;20189;-67
2022/05/15 12:34:23;;;;;;;17.63;16.83;;;;;;;;;;5095270;28;20277;-68
2022/05/15 12:36:53;;;;;;;17.90;17.10;;;;;;;;;;5094890;28;20215;-68
2022/05/15 12:39:24;;;;;;;17.38;16.58;;;;;;;;;;5095172;28;20214;-68
2022/05/15 12:41:51;;;;;;;17.88;17.08;;;;;;;;;;5095173;28;20182;-67
2022/05/15 12:44:29;;;;;;;17.80;17.00;;;;;;;;;;5094795;28;20194;-67
2022/05/15 12:46:57;;;;;;;17.77;16.98;;;;;;;;;;5095333;28;20194;-67
2022/05/15 12:49:31;;;;;;;17.75;16.95;;;;;;;;;;5094954;28;20280;-67
2022/05/15 12:52:09;;;;;;;17.75;16.95;;;;;;;;;;5094616;28;20595;-67
2022/05/15 12:54:38;;;;;;;17.50;16.70;;;;;;;;;;5094568;28;20546;-68
2022/05/15 12:57:07;;;;;;;17.70;16.90;;;;;;;;;;5094834;28;20198;-68
2022/05/15 12:59:35;;;;;;;17.42;16.63;;;;;;;;;;5094727;28;20229;-68
2022/05/15 13:02:14;;;;;;;17.67;16.88;;;;;;;;;;5094678;28;20197;-68
2022/05/15 13:04:45;;;;;;;18.67;17.77;;;;;;;;;;5094426;28;20194;-68
2022/05/15 13:07:11;;;;;;;16.65;15.95;;;;;;;;;;5094419;28;20186;-68
2022/05/15 13:09:39;;;;;;;17.30;16.50;;;;;;;;;;5094357;28;20582;-68
2022/05/15 13:12:08;;;;;;;17.38;16.58;;;;;;;;;;5094532;28;20190;-68
2022/05/15 13:14:36;;;;;;;18.50;17.70;;;;;;;;;;5094464;28;20198;-68
2022/05/15 13:17:04;;;;;;;18.23;17.42;;;;;;;;;;5094410;28;20197;-68
2022/05/15 13:19:34;;;;;;;18.80;18.00;;;;;;;;;;5094071;28;20725;-67
2022/05/15 13:22:01;;;;;;;18.30;17.50;;;;;;;;;;5094114;28;20237;-67
2022/05/15 13:24:30;;;;;;;17.98;17.17;;;;;;;;;;5093976;28;20240;-68
2022/05/15 13:26:59;;;;;;;17.25;16.45;;;;;;;;;;5094319;28;20621;-68
2022/05/15 13:29:27;;;;;;;17.40;16.60;;;;;;;;;;5093824;28;20198;-68
2022/05/15 13:31:54;;;;;;;17.00;16.20;;;;;;;;;;5093820;28;20664;-68
2022/05/15 13:34:26;;;;;;;17.10;16.30;;;;;;;;;;5093748;28;20217;-68
2022/05/15 13:36:53;;;;;;;17.02;16.23;;;;;;;;;;5094390;28;20193;-68
2022/05/15 13:44:52;;;;;;;17.25;16.45;;;;;;;;;;5093726;28;20189;-68
2022/05/15 13:47:18;;;;;;;17.05;16.25;;;;;;;;;;5094368;28;20739;-68
2022/05/15 13:49:47;;;;;;;17.00;16.20;;;;;;;;;;5093461;28;20655;-68
2022/05/15 13:52:33;;;;;;;19.85;18.95;;;;;;;;;;5093755;28;20230;-68
2022/05/15 13:55:02;;;;;;;19.45;18.55;;;;;;;;;;5094641;28;20587;-68
2022/05/15 13:57:31;;;;;;;19.30;18.40;;;;;;;;;;5093452;28;20729;-68
2022/05/15 14:00:02;;;;;;;18.15;17.33;;;;;;;;;;5093653;28;20296;-68
2022/05/15 14:02:29;;;;;;;19.08;18.17;;;;;;;;;;5093527;28;20630;-69
2022/05/15 14:05:11;;;;;;;18.52;17.63;;;;;;;;;;5093593;28;20276;-68
2022/05/15 14:07:39;;;;;;;17.75;16.95;;;;;;;;;;5093400;28;20228;-67
2022/05/15 14:10:16;;;;;;;17.90;17.10;;;;;;;;;;5093071;28;20253;-69
2022/05/15 14:12:46;;;;;;;18.02;17.17;;;;;;;;;;5093454;28;20292;-68
2022/05/15 14:15:27;;;;;;;17.77;16.98;;;;;;;;;;5093320;28;20264;-68
2022/05/15 14:17:58;;;;;;;17.80;17.00;;;;;;;;;;5093301;28;20563;-68
2022/05/15 14:20:26;;;;;;;20.48;19.48;;;;;;;;;;5093042;28;20186;-69
2022/05/15 14:22:53;;;;;;;17.65;16.85;;;;;;;;;;5093252;28;20229;-68
2022/05/15 14:25:20;;;;;;;19.48;18.58;;;;;;;;;;5092896;28;20241;-68
2022/05/15 14:27:48;;;;;;;19.35;18.45;;;;;;;;;;5092898;28;20197;-68
2022/05/15 14:30:15;;;;;;;17.58;16.77;;;;;;;;;;5093096;28;20193;-68
2022/05/15 14:32:42;;;;;;;18.25;17.45;;;;;;;;;;5092806;28;20227;-68
2022/05/15 14:35:10;;;;;;;19.27;18.38;;;;;;;;;;5092727;28;20555;-68
2022/05/15 14:37:37;;;;;;;19.58;18.67;;;;;;;;;;5092334;28;20734;-67
2022/05/15 14:40:04;;;;;;;18.38;17.58;;;;;;;;;;5092879;28;20259;-68
2022/05/15 14:42:31;;;;;;;18.30;17.50;;;;;;;;;;5092594;28;20289;-68
2022/05/15 14:44:59;;;;;;;17.80;17.00;;;;;;;;;;5092896;28;20193;-68
2022/05/15 14:47:28;;;;;;;17.73;16.92;;;;;;;;;;5092894;28;20823;-69
2022/05/15 14:49:55;;;;;;;17.63;16.83;;;;;;;;;;5092712;28;20237;-67
2022/05/15 14:52:25;;;;;;;17.52;16.73;;;;;;;;;;5092447;28;20201;-67
2022/05/15 14:54:52;;;;;;;18.00;17.20;;;;;;;;;;5092733;28;20276;-69